Flight Track Log - Related Links

Times and Time Zones

All times are in EDT time to prevent confusion due to time zone crossing. See the DAL3982 flight status page for this flight to view local times or setup timezone preferences in your user account.

Time Position Orientation Groundspeed Altitude Reporting Facility
EDT Latitude Longitude Course Direction KTS MPH feet Rate Location/Type
Sat 09:07:13 PM 33.6500 -84.3833 North 167 192 2,300  Level Atlanta TRACON
Sat 09:08:13 PM 33.6667 -84.3167 73° East 237 273 3,700 2,000 Climbing Atlanta TRACON
Sat 09:09:00 PM 33.8325 -84.1667 North  Level FlightAware Approximate
Sat 09:09:13 PM 33.7333 -84.3000 12° North 299 344 6,300  Level Atlanta TRACON
Sat 09:10:00 PM 33.9259 -84.2592 320° Northwest  Level FlightAware Approximate
Sat 09:10:13 PM 33.8167 -84.2833 North 296 341 9,500  Level Atlanta TRACON
Sat 09:11:00 PM 34.0447 -84.2667 North  Level FlightAware Approximate
Sat 09:12:00 PM 34.1658 -84.2667 North  Level FlightAware Approximate
Sat 09:12:41 PM 34.0319 -84.2869 359° North 349 402 13,300  Level Atlanta Center
Sat 09:13:41 PM 34.1406 -84.2572 13° North 379 436 16,400 2,150 Climbing Atlanta Center
Sat 09:14:41 PM 34.2469 -84.2372 North 393 452 17,600 1,450 Climbing Atlanta Center
Sat 09:15:41 PM 34.3619 -84.2150 North 406 467 19,300 1,550 Climbing Atlanta Center
Sat 09:16:41 PM 34.4872 -84.1900 North 413 475 20,700 1,350 Climbing Atlanta Center
Sat 09:17:41 PM 34.6122 -84.1650 North 433 498 22,000 1,100 Climbing Atlanta Center
Sat 09:18:41 PM 34.7208 -84.1422 10° North 433 498 22,900 1,200 Climbing Atlanta Center
Sat 09:19:41 PM 34.8503 -84.1172 North 451 519 24,400 1,400 Climbing Atlanta Center
Sat 09:20:41 PM 34.9756 -84.0894 10° North 456 525 25,700 1,100 Climbing Atlanta Center
Sat 09:21:41 PM 35.1069 -84.0642 North 461 531 26,600 900 Climbing Atlanta Center
Sat 09:22:41 PM 35.2406 -84.0361 10° North 473 544 27,500 1,150 Climbing Atlanta Center
Sat 09:23:41 PM 35.3742 -84.0083 10° North 473 544 28,900 1,400 Climbing Atlanta Center
Sat 09:24:41 PM 35.5033 -83.9800 10° North 473 544 30,300 1,050 Climbing Atlanta Center
Sat 09:25:41 PM 35.6347 -83.9519 10° North 478 550 31,000 350 Climbing Atlanta Center
Sat 09:26:41 PM 35.7703 -83.9236 10° North 483 556 31,000  Level Atlanta Center
Sat 09:27:41 PM 35.9081 -83.8900 11° North 488 562 31,000 600 Level Atlanta Center
Sat 09:28:41 PM 36.0372 -83.8128 26° Northeast 493 567 32,200 944 Climbing Atlanta Center
Sat 09:30:39 PM 36.2900 -83.6511 27° Northeast 509 586 33,800 737 Climbing Indianapolis Center
Sat 09:31:40 PM 36.4172 -83.5706 27° Northeast 512 589 34,400 590 Climbing Indianapolis Center
Sat 09:32:41 PM 36.5569 -83.4833 27° Northeast 519 597 35,000 298 Climbing Indianapolis Center
Sat 09:33:41 PM 36.6839 -83.4011 27° Northeast 514 592 35,000  Level Indianapolis Center
Sat 09:34:42 PM 36.8122 -83.3181 27° Northeast 514 592 35,000  Level Indianapolis Center
Sat 09:35:43 PM 36.9411 -83.2347 27° Northeast 514 592 35,000  Level Indianapolis Center
Sat 09:36:44 PM 37.0706 -83.1511 27° Northeast 514 592 35,000  Level Indianapolis Center
Sat 09:37:45 PM 37.2000 -83.0675 27° Northeast 516 594 35,000  Level Indianapolis Center
Sat 09:38:45 PM 37.3275 -82.9831 28° Northeast 514 592 35,000  Level Indianapolis Center
Sat 09:39:46 PM 37.4567 -82.8994 27° Northeast 516 594 35,000  Level Indianapolis Center
Sat 09:40:47 PM 37.5767 -82.7947 35° Northeast 529 609 35,000  Level Indianapolis Center
Sat 09:41:48 PM 37.6939 -82.6850 37° Northeast 523 602 35,000  Level Indianapolis Center
Sat 09:42:48 PM 37.8128 -82.5742 36° Northeast 526 605 35,000  Level Indianapolis Center
Sat 09:43:49 PM 37.9294 -82.4650 36° Northeast 521 600 35,000  Level Indianapolis Center
Sat 09:44:50 PM 38.0469 -82.3514 37° Northeast 529 609 35,000  Level Indianapolis Center
Sat 09:45:51 PM 38.1669 -82.2378 37° Northeast 526 605 35,000  Level Indianapolis Center
Sat 09:46:51 PM 38.2844 -82.1261 37° Northeast 525 604 35,000  Level Indianapolis Center
Sat 09:47:52 PM 38.4017 -82.0131 37° Northeast 526 605 35,000  Level Indianapolis Center
Sat 09:48:53 PM 38.5194 -81.9006 37° Northeast 526 605 35,000  Level Indianapolis Center
Sat 09:49:54 PM 38.6372 -81.7875 37° Northeast 524 603 35,000  Level Indianapolis Center
Sat 09:50:54 PM 38.7567 -81.6722 37° Northeast 523 602 35,000  Level Indianapolis Center
Sat 09:51:55 PM 38.8753 -81.5553 37° Northeast 519 597 35,000  Level Indianapolis Center
Sat 09:52:56 PM 38.9900 -81.4425 37° Northeast 513 590 35,000  Level Indianapolis Center
Sat 09:53:57 PM 39.1028 -81.3308 38° Northeast 509 586 35,000  Level Indianapolis Center
Sat 09:54:57 PM 39.2158 -81.2197 37° Northeast 510 587 35,000 -50 Level Indianapolis Center
Sat 09:55:58 PM 39.3281 -81.1092 37° Northeast 507 583 34,900 -443 Descending Indianapolis Center
Sat 09:56:59 PM 39.4378 -80.9997 38° Northeast 499 574 34,100 -793 Descending Indianapolis Center
Sat 09:57:59 PM 39.5461 -80.8908 38° Northeast 493 567 33,300 -623 Descending Indianapolis Center
Sat 09:58:45 PM 39.6397 -80.8014 36° Northeast 497 572 33,000 -170 Descending Cleveland Center
Sat 09:59:45 PM 39.7481 -80.6911 38° Northeast 492 566 33,000  Level Cleveland Center
Sat 10:00:45 PM 39.8567 -80.5803 38° Northeast 492 566 33,000  Level Cleveland Center
Sat 10:01:45 PM 39.9669 -80.4692 38° Northeast 492 566 33,000  Level Cleveland Center
Sat 10:02:45 PM 40.0753 -80.3606 37° Northeast 492 566 33,000  Level Cleveland Center
Sat 10:03:45 PM 40.1814 -80.2489 39° Northeast 487 560 33,000  Level Cleveland Center
Sat 10:04:45 PM 40.2914 -80.1367 38° Northeast 496 571 33,000  Level Cleveland Center
Sat 10:05:45 PM 40.3869 -80.0378 38° Northeast 502 578 33,000  Level Cleveland Center
Sat 10:06:45 PM 40.5008 -79.9197 38° Northeast 510 587 33,000  Level Cleveland Center
Sat 10:07:45 PM 40.6086 -79.8064 39° Northeast 510 587 33,000  Level Cleveland Center
Sat 10:08:45 PM 40.7183 -79.6928 38° Northeast 510 587 33,000  Level Cleveland Center
Sat 10:09:45 PM 40.8278 -79.5789 38° Northeast 510 587 33,000  Level Cleveland Center
Sat 10:10:45 PM 40.9372 -79.4617 39° Northeast 510 587 33,000  Level Cleveland Center
Sat 10:11:45 PM 41.0467 -79.3469 38° Northeast 510 587 33,000  Level Cleveland Center
Sat 10:12:45 PM 41.1558 -79.2319 38° Northeast 510 587 33,000  Level Cleveland Center
Sat 10:13:45 PM 41.2647 -79.1164 39° Northeast 510 587 33,000  Level Cleveland Center
Sat 10:14:45 PM 41.3717 -79.0033 38° Northeast 510 587 33,000  Level Cleveland Center
Sat 10:15:45 PM 41.4783 -78.8869 39° Northeast 504 580 33,000  Level Cleveland Center
Sat 10:16:45 PM 41.5850 -78.7703 39° Northeast 499 574 33,000  Level Cleveland Center
Sat 10:17:45 PM 41.6875 -78.6561 40° Northeast 493 567 33,000  Level Cleveland Center
Sat 10:18:45 PM 41.7917 -78.5417 39° Northeast 493 567 33,000  Level Cleveland Center
Sat 10:19:45 PM 41.8961 -78.4297 39° Northeast 493 567 33,000  Level Cleveland Center
Sat 10:20:45 PM 42.0003 -78.3172 39° Northeast 488 562 33,000  Level Cleveland Center
Sat 10:21:45 PM 42.1164 -78.1897 39° Northeast 488 562 33,000  Level Cleveland Center
Sat 10:22:45 PM 42.2203 -78.0739 40° Northeast 488 562 33,000  Level Cleveland Center
Sat 10:23:45 PM 42.3239 -77.9572 40° Northeast 482 555 33,000  Level Cleveland Center
Sat 10:24:45 PM 42.4256 -77.8433 40° Northeast 482 555 33,000  Level Cleveland Center
Sat 10:25:45 PM 42.5292 -77.7289 39° Northeast 482 555 33,000  Level Cleveland Center
Sat 10:27:40 PM 42.7231 -77.5058 40° Northeast 483 556 33,000  Level Boston Center
Sat 10:28:40 PM 42.8264 -77.3897 39° Northeast 477 549 33,000  Level Boston Center
Sat 10:29:40 PM 42.9272 -77.2758 40° Northeast 477 549 33,000  Level Boston Center
Sat 10:30:40 PM 43.0258 -77.1583 41° Northeast 477 549 33,000  Level Boston Center
Sat 10:31:40 PM 43.1264 -77.0439 40° Northeast 477 549 33,000  Level Boston Center
Sat 10:32:40 PM 43.2269 -76.9289 40° Northeast 477 549 33,000  Level Boston Center
Sat 10:33:40 PM 43.3256 -76.8103 41° Northeast 477 549 33,000  Level Boston Center
Sat 10:34:36 PM 43.4000 -76.7000 47° Northeast 460 529 33,000  Level Montreal Center
Sat 10:35:36 PM 43.5167 -76.5833 36° Northeast 470 541 33,000 -100 Level Montreal Center
Sat 10:36:36 PM 43.6000 -76.4833 41° Northeast 460 529 32,800 -550 Descending Montreal Center
Sat 10:37:36 PM 43.7000 -76.3833 36° Northeast 450 518 31,900 -1,050 Descending Montreal Center
Sat 10:38:36 PM 43.8167 -76.2667 36° Northeast 460 529 30,700 -1,200 Descending Montreal Center
Sat 10:39:36 PM 43.9167 -76.1500 40° Northeast 460 529 29,500 -1,184 Descending Montreal Center
Sat 10:39:52 PM 43.9539 -76.1347 16° North 451 519 29,200 -1,184 Descending Boston Center
Sat 10:40:52 PM 44.0433 -76.0133 44° Northeast 451 519 28,000 -600 Descending Boston Center
Sat 10:41:52 PM 44.1325 -75.8911 45° Northeast 446 513 28,000  Level Boston Center
Sat 10:42:52 PM 44.2233 -75.7747 43° Northeast 446 513 28,000  Level Boston Center
Sat 10:43:52 PM 44.3122 -75.6522 45° Northeast 446 513 28,000  Level Boston Center
Sat 10:44:52 PM 44.4011 -75.5289 45° Northeast 446 513 28,000  Level Boston Center
Sat 10:45:52 PM 44.4897 -75.4086 44° Northeast 446 513 28,000 -250 Level Boston Center
Sat 10:46:52 PM 44.5783 -75.2847 45° Northeast 446 513 27,500 -1,038 Descending Boston Center
Sat 10:47:36 PM 44.6333 -75.2000 48° Northeast 440 506 26,200 -1,673 Descending Montreal Center
Sat 10:48:36 PM 44.7167 -75.0667 49° Northeast 440 506 24,600 -1,750 Descending Montreal Center
Sat 10:49:36 PM 44.8000 -74.9500 45° Northeast 440 506 22,700 -1,900 Descending Montreal Center
Sat 10:50:36 PM 44.8833 -74.8333 45° Northeast 430 495 20,800 -2,000 Descending Montreal Center
Sat 10:51:36 PM 44.9833 -74.7167 40° Northeast 420 483 18,700 -1,850 Descending Montreal Center
Sat 10:52:36 PM 45.0500 -74.6167 47° Northeast 410 472 17,100 -1,800 Descending Montreal Center
Sat 10:53:36 PM 45.1333 -74.5000 45° Northeast 400 460 15,100 -2,200 Descending Montreal Center
Sat 10:54:36 PM 45.2000 -74.3833 51° Northeast 350 403 12,700 -2,300 Descending Montreal Center
Sat 10:55:36 PM 45.2667 -74.2833 47° Northeast 350 403 10,500 -2,050 Descending Montreal Center
Sat 10:56:36 PM 45.3167 -74.1833 55° Northeast 300 345 8,600 -1,250 Descending Montreal Center
Sat 10:57:36 PM 45.3833 -74.1000 41° Northeast 280 322 8,000 -650 Descending Montreal Center
Sat 10:58:36 PM 45.4167 -74.0333 55° Northeast 260 299 7,300 -950 Descending Montreal Center
Sat 10:59:36 PM 45.4500 -73.9667 55° Northeast 230 265 6,100 -1,800 Descending Montreal Center
Sat 11:00:36 PM 45.5000 -73.8833 49° Northeast 210 242 3,700 -1,550 Descending Montreal Center
Sat 11:01:36 PM 45.5333 -73.8333 46° Northeast 220 253 3,000 -350 Descending Montreal Center
Sat 11:02:36 PM 45.5667 -73.7667 54° Northeast 220 253 3,000 50 Level Montreal Center
Sat 11:03:36 PM 45.6167 -73.7000 43° Northeast 210 242 3,100 -100 Climbing Montreal Center
Sat 11:04:36 PM 45.6167 -73.6167 90° East 170 196 2,800 -50 Descending Montreal Center
Sat 11:05:36 PM 45.5833 -73.6000 161° South 160 184 3,000 -200 Climbing Montreal Center
Sat 11:06:36 PM 45.5500 -73.6167 199° South 140 161 2,400 -600 Descending Montreal Center

Login

Don't have an account? Register now (free) for customized features, flight alerts, and more!